Time;durP1;ratioP1;P1;durP2;ratioP2;P2;SDS_P1;SDS_P2;PMS_P1;PMS_P2;Temp;Humidity;BMP_temperature;BMP_pressure;BME280_temperature;BME280_humidity;BME280_pressure;Samples;Min_cycle;Max_cycle;Signal;HPM_P1;HPM_P2
2021/06/14 00:00:20;;;;;;;11.90;5.40;;;16.20;74.90;;;16.65;61.58;101373.81;5048326;28;20049;-79
2021/06/14 00:03:04;;;;;;;9.98;5.32;;;16.10;75.20;;;16.61;61.72;101367.03;5049177;28;20136;-79
2021/06/14 00:05:47;;;;;;;9.65;5.22;;;16.10;75.50;;;16.60;62.14;101370.81;5049298;28;20083;-79
2021/06/14 00:08:23;;;;;;;10.98;5.38;;;16.10;75.80;;;16.58;62.26;101376.56;5049205;28;20496;-79
2021/06/14 00:11:08;;;;;;;11.40;5.68;;;16.00;76.00;;;16.52;62.49;101369.09;5048437;28;20102;-79
2021/06/14 00:13:47;;;;;;;10.23;5.32;;;16.00;76.20;;;16.51;62.50;101361.06;5048668;28;20843;-79
2021/06/14 00:16:26;;;;;;;10.98;5.13;;;16.00;76.20;;;16.48;62.60;101366.97;5045673;28;20056;-79
2021/06/14 00:21:54;;;;;;;8.90;5.07;;;16.00;76.20;;;16.43;62.57;101364.84;5047724;28;20049;-79
2021/06/14 00:24:30;;;;;;;11.25;5.32;;;15.90;76.30;;;16.42;62.37;101354.88;5048802;28;20076;-79
2021/06/14 00:27:08;;;;;;;8.93;5.03;;;15.90;76.40;;;16.36;62.63;101359.28;5048594;28;20079;-79
2021/06/14 00:29:46;;;;;;;11.70;5.57;;;15.90;76.40;;;16.35;62.54;101348.50;5048125;28;20059;-79
2021/06/14 00:32:20;;;;;;;10.10;4.60;;;15.90;76.40;;;16.36;62.42;101348.31;5048597;28;20094;-79
2021/06/14 00:34:58;;;;;;;11.13;4.80;;;15.80;76.30;;;16.32;62.70;101347.00;5048787;28;20073;-79
2021/06/14 00:37:36;;;;;;;9.55;4.72;;;15.80;76.50;;;16.27;62.62;101349.50;5048946;28;20118;-79
2021/06/14 00:40:13;;;;;;;11.25;4.70;;;15.80;76.70;;;16.26;62.87;101347.84;5047967;28;20562;-79
2021/06/14 00:42:51;;;;;;;8.25;4.65;;;15.70;76.60;;;16.26;62.57;101339.59;5047166;28;20299;-78
2021/06/14 00:45:34;;;;;;;7.18;4.22;;;15.70;76.60;;;16.21;62.88;101333.84;5048464;28;20098;-79
2021/06/14 00:51:06;;;;;;;8.52;4.72;;;15.70;77.00;;;16.17;62.94;101338.88;5045669;28;20052;-79
2021/06/14 00:53:55;;;;;;;12.57;5.05;;;15.70;76.90;;;16.16;62.99;101325.34;5046780;28;20045;-79
2021/06/14 00:59:28;;;;;;;11.18;5.07;;;15.60;77.10;;;16.12;63.30;101319.41;5048389;28;20045;-79
2021/06/14 01:02:07;;;;;;;9.93;4.88;;;15.60;77.20;;;16.12;63.08;101318.56;5047949;28;20045;-79
2021/06/14 01:04:46;;;;;;;8.48;4.85;;;15.60;77.20;;;16.08;63.25;101322.78;5046874;28;20060;-79
2021/06/14 01:07:23;;;;;;;11.00;4.85;;;15.60;77.30;;;16.03;63.20;101316.00;5048117;28;20041;-79
2021/06/14 01:09:59;;;;;;;10.80;5.50;;;15.50;77.40;;;16.03;63.27;101321.50;5047578;28;20072;-79
2021/06/14 01:12:45;;;;;;;13.88;5.35;;;15.50;77.50;;;16.00;63.59;101318.28;5063232;28;20049;-79
2021/06/14 01:18:42;;;;;;;13.48;5.22;;;15.50;78.00;;;15.96;63.80;101315.09;5135936;27;20511;-80
2021/06/14 01:21:26;;;;;;;9.55;4.97;;;15.50;78.00;;;15.93;63.92;101311.91;5083779;28;20062;-80
2021/06/14 01:24:27;;;;;;;9.55;4.70;;;15.40;78.10;;;15.89;63.91;101305.13;5065064;28;20052;-80
2021/06/14 01:27:38;;;;;;;9.55;4.90;;;15.40;78.20;;;15.87;63.96;101297.06;5063803;28;20596;-80
2021/06/14 01:30:29;;;;;;;13.52;5.00;;;15.40;78.10;;;15.84;64.05;101289.25;5058307;28;20052;-80
2021/06/14 01:33:09;;;;;;;9.52;5.03;;;15.30;78.30;;;15.84;63.98;101294.75;5065400;28;20420;-80
2021/06/14 01:35:50;;;;;;;10.45;4.97;;;15.30;78.30;;;15.80;64.04;101286.06;5063716;28;20060;-80
2021/06/14 01:38:36;;;;;;;8.88;4.70;;;15.20;78.40;;;15.79;64.23;101286.25;5065387;28;20511;-80
2021/06/14 01:41:14;;;;;;;8.43;4.93;;;15.20;78.40;;;15.76;64.32;101283.91;5064451;28;20124;-80
2021/06/14 01:43:58;;;;;;;8.85;5.07;;;15.20;78.70;;;15.75;64.08;101287.72;5063692;28;20509;-80
2021/06/14 01:46:47;;;;;;;10.10;5.47;;;15.20;78.60;;;15.73;64.35;101287.03;5064989;28;20512;-80
2021/06/14 01:49:21;;;;;;;9.63;5.05;;;15.10;78.80;;;15.69;64.23;101280.22;5065074;28;20051;-80
2021/06/14 01:54:53;;;;;;;10.35;4.85;;;15.10;78.80;;;15.67;64.42;101269.47;5045277;28;20544;-80
2021/06/14 01:57:37;;;;;;;10.27;5.28;;;15.10;79.00;;;15.67;64.19;101271.34;5064555;28;20043;-80
2021/06/14 02:00:31;;;;;;;8.05;4.28;;;15.10;78.90;;;15.64;64.40;101267.13;5046107;28;20056;-80
2021/06/14 02:03:23;;;;;;;11.20;4.97;;;15.10;79.00;;;15.61;64.44;101271.13;5053481;28;20140;-80
2021/06/14 02:06:07;;;;;;;10.43;4.82;;;15.00;79.10;;;15.59;64.50;101259.50;5038299;28;20055;-80
2021/06/14 02:08:49;;;;;;;9.68;5.05;;;15.00;79.20;;;15.57;64.33;101261.59;5036913;28;20487;-80
2021/06/14 02:11:30;;;;;;;8.88;4.78;;;15.00;79.10;;;15.52;64.35;101247.63;5063606;28;20048;-80
2021/06/14 02:14:10;;;;;;;9.98;5.53;;;15.00;79.10;;;15.50;64.54;101251.59;5063212;28;20083;-80
2021/06/14 02:19:40;;;;;;;10.50;4.63;;;14.90;79.30;;;15.48;64.56;101256.41;5064490;28;20051;-80
2021/06/14 02:22:23;;;;;;;7.88;4.75;;;14.90;79.30;;;15.47;64.61;101254.75;5046347;28;20076;-80
2021/06/14 02:24:59;;;;;;;9.35;5.07;;;14.80;79.40;;;15.44;64.53;101256.00;5061785;28;20044;-80
2021/06/14 02:27:35;;;;;;;7.68;4.50;;;14.80;79.50;;;15.42;64.75;101249.84;5043384;28;20042;-80
2021/06/14 02:30:22;;;;;;;7.82;4.97;;;14.80;79.50;;;15.38;64.88;101245.81;5012490;28;20060;-80
2021/06/14 02:33:03;;;;;;;8.98;4.93;;;14.80;79.60;;;15.33;65.01;101248.31;5012989;28;20540;-83
2021/06/14 02:35:39;;;;;;;9.73;4.72;;;14.80;79.80;;;15.34;64.89;101244.50;5031141;28;20083;-83
2021/06/14 02:38:16;;;;;;;7.97;4.53;;;14.80;79.70;;;15.33;64.70;101237.34;5030726;28;20045;-83
2021/06/14 02:40:53;;;;;;;9.10;4.72;;;14.70;79.80;;;15.31;64.68;101239.44;5030216;28;20060;-82
2021/06/14 02:43:32;;;;;;;9.98;4.95;;;14.70;79.90;;;15.29;64.91;101242.38;5012838;28;20053;-83
2021/06/14 02:49:00;;;;;;;8.38;4.85;;;14.70;80.00;;;15.21;64.99;101235.13;5030449;28;20053;-83
2021/06/14 02:51:42;;;;;;;10.38;4.70;;;14.60;79.90;;;15.18;65.24;101241.00;5028692;28;20141;-82
2021/06/14 03:00:09;;;;;;;9.90;4.43;;;14.60;80.00;;;15.15;65.11;101241.38;5012119;28;20065;-83
2021/06/14 03:02:48;;;;;;;8.98;4.63;;;14.60;80.00;;;15.15;65.05;101235.06;5027303;28;20111;-83
2021/06/14 03:05:29;;;;;;;12.07;5.22;;;14.50;80.00;;;15.12;65.18;101230.81;5012615;28;20049;-83
2021/06/14 03:08:11;;;;;;;;;;;14.50;80.10;;;15.09;65.25;101230.38;5012784;28;20045;-83
2021/06/14 03:10:49;;;;;;;10.00;4.95;;;14.50;80.10;;;15.07;65.14;101227.81;5028226;28;19925;-82
2021/06/14 03:13:29;;;;;;;10.02;4.45;;;14.50;80.20;;;15.04;65.28;101223.59;5012143;28;20084;-83
2021/06/14 03:21:52;;;;;;;9.10;4.63;;;14.40;80.40;;;14.96;65.60;101218.22;5027697;28;20049;-83
2021/06/14 03:24:36;;;;;;;7.85;4.40;;;14.40;80.30;;;14.96;65.55;101217.38;5028499;28;20053;-83
2021/06/14 03:27:15;;;;;;;8.98;4.68;;;14.40;80.20;;;14.96;65.59;101214.63;5012295;28;20510;-83
2021/06/14 03:30:00;;;;;;;8.82;4.60;;;14.40;80.30;;;14.96;65.45;101210.00;5029127;28;20522;-83
2021/06/14 03:32:34;;;;;;;9.05;5.13;;;14.40;80.30;;;14.98;65.43;101209.81;5030026;28;20045;-83
2021/06/14 03:35:13;;;;;;;8.10;5.13;;;14.40;80.40;;;14.98;65.40;101207.06;5028424;28;20520;-82
2021/06/14 03:37:45;;;;;;;8.77;5.05;;;14.40;80.40;;;14.95;65.85;101213.78;5029915;28;20068;-83
2021/06/14 03:40:28;;;;;;;9.00;5.03;;;14.40;80.50;;;14.94;65.92;101208.50;5028062;28;20045;-83
2021/06/14 03:43:16;;;;;;;9.20;4.97;;;14.40;80.60;;;14.92;65.79;101208.69;5029787;28;20493;-83
2021/06/14 03:45:51;;;;;;;12.02;4.95;;;14.40;80.80;;;14.93;65.98;101199.44;5029829;28;20107;-82
2021/06/14 03:48:27;;;;;;;9.52;4.60;;;14.40;80.80;;;14.94;65.89;101209.34;5029726;28;20044;-83
2021/06/14 03:51:03;;;;;;;9.43;4.78;;;14.40;80.70;;;14.90;66.37;101202.56;5028557;28;20045;-82
2021/06/14 03:53:39;;;;;;;9.40;5.05;;;14.40;80.80;;;14.92;66.24;101207.84;5011548;28;20719;-82
2021/06/14 03:56:22;;;;;;;8.07;4.68;;;14.50;80.90;;;14.88;66.59;101201.91;5029543;28;20072;-83
2021/06/14 03:58:58;;;;;;;10.48;5.03;;;14.50;80.90;;;14.90;66.69;101202.56;5027997;28;20050;-83
2021/06/14 04:01:38;;;;;;;10.93;5.00;;;14.50;81.00;;;14.94;66.94;101200.28;5010743;28;20484;-82
2021/06/14 04:07:23;;;;;;;7.95;4.93;;;14.60;81.40;;;14.96;67.34;101193.56;5010245;28;20053;-82
2021/06/14 04:10:04;;;;;;;10.13;5.20;;;14.60;81.60;;;14.96;67.71;101189.97;5028549;28;20056;-82
2021/06/14 04:12:42;;;;;;;10.00;5.38;;;14.60;81.50;;;15.01;67.56;101192.97;5029335;28;20048;-82
2021/06/14 04:15:21;;;;;;;9.50;5.13;;;14.70;81.60;;;15.02;67.49;101191.91;5030334;28;20048;-82
2021/06/14 04:17:59;;;;;;;11.15;5.47;;;14.80;81.40;;;15.05;67.69;101184.16;5029302;28;20084;-82
2021/06/14 04:20:32;;;;;;;10.20;5.20;;;14.80;81.40;;;15.07;67.92;101183.97;5028222;28;20093;-84
2021/06/14 04:25:59;;;;;;;11.77;5.25;;;15.00;81.40;;;15.13;68.00;101182.31;5011270;28;20049;-87
2021/06/14 04:28:38;;;;;;;9.55;4.97;;;15.10;81.20;;;15.17;67.92;101181.75;5029002;28;20033;-89
2021/06/14 04:31:14;;;;;;;11.95;5.60;;;15.10;80.90;;;15.19;68.56;101184.25;5028248;28;20053;-88
2021/06/14 04:33:56;;;;;;;7.47;4.90;;;15.30;80.90;;;15.19;68.64;101176.91;5011264;28;20623;-88
2021/06/14 04:42:13;;;;;;;11.05;4.75;;;15.80;79.90;;;15.33;70.15;101182.50;5028821;28;20083;-88
2021/06/14 04:44:49;;;;;;;9.68;4.35;;;16.00;80.10;;;15.37;70.36;101178.28;5027451;28;20064;-88
2021/06/14 04:47:25;;;;;;;7.88;4.13;;;16.10;80.00;;;15.44;70.48;101177.28;5028851;28;20418;-88
2021/06/14 04:50:01;;;;;;;10.13;4.72;;;16.20;79.60;;;15.50;70.59;101183.00;5028137;28;20049;-87
2021/06/14 04:52:38;;;;;;;11.05;5.03;;;16.40;79.00;;;15.57;71.42;101173.78;5028276;28;20174;-88
2021/06/14 04:55:18;;;;;;;9.93;5.05;;;16.50;79.50;;;15.67;71.71;101172.56;5027442;28;20588;-89
2021/06/14 04:58:01;;;;;;;9.35;4.47;;;16.70;79.40;;;15.77;71.15;101175.84;5028235;28;20050;-90
2021/06/14 05:00:39;;;;;;;12.00;4.60;;;16.80;79.00;;;15.81;71.69;101172.47;5028225;28;20049;-87
2021/06/14 05:03:18;;;;;;;8.55;4.95;;;16.90;78.60;;;15.90;72.00;101172.31;5028176;28;20045;-89
2021/06/14 05:06:00;;;;;;;10.05;4.63;;;17.10;78.90;;;15.99;72.07;101182.06;5028332;28;20053;-87
2021/06/14 05:08:38;;;;;;;9.77;4.88;;;17.20;78.70;;;16.12;73.26;101171.13;5028106;28;20113;-87
2021/06/14 05:11:15;;;;;;;10.43;4.45;;;17.40;78.90;;;16.19;72.53;101171.16;5027509;28;20053;-87
2021/06/14 05:13:56;;;;;;;9.52;4.93;;;17.60;78.30;;;16.32;73.06;101176.69;5028364;28;20048;-88
2021/06/14 05:16:36;;;;;;;12.02;5.30;;;17.80;78.10;;;16.45;73.51;101180.53;5028165;28;20053;-86
2021/06/14 05:19:20;;;;;;;12.98;4.82;;;18.00;77.60;;;16.53;73.59;101183.09;5048452;28;20048;-88
2021/06/14 05:22:01;;;;;;;11.10;4.78;;;18.20;77.70;;;16.65;72.87;101181.44;5047770;28;20098;-86
2021/06/14 05:24:37;;;;;;;12.02;4.50;;;18.30;77.10;;;16.74;73.02;101185.69;5048014;28;20049;-86
2021/06/14 05:27:16;;;;;;;10.35;3.85;;;18.40;76.80;;;16.85;70.59;101183.38;5047641;28;20084;-86
2021/06/14 05:29:56;;;;;;;9.00;3.90;;;18.50;73.60;;;16.94;71.29;101179.38;5029562;28;20460;-85
2021/06/14 05:32:32;;;;;;;10.27;3.85;;;18.60;75.20;;;17.03;68.90;101183.63;5029983;28;20057;-90
2021/06/14 05:35:13;;;;;;;10.63;3.90;;;18.70;72.70;;;17.13;67.09;101174.94;5048009;28;20045;-86
2021/06/14 05:37:58;;;;;;;7.82;3.60;;;18.80;70.30;;;17.21;65.78;101174.75;5047788;28;20045;-90
2021/06/14 05:40:34;;;;;;;7.57;3.50;;;18.90;69.30;;;17.31;65.93;101175.16;5029945;28;20089;-86
2021/06/14 05:43:13;;;;;;;10.02;3.45;;;19.20;69.30;;;17.37;65.56;101168.78;5048576;28;20044;-85
2021/06/14 05:45:54;;;;;;;8.20;3.28;;;19.30;69.20;;;17.53;63.40;101161.13;5047752;28;20048;-87
2021/06/14 05:48:52;;;;;;;9.55;2.90;;;19.30;67.10;;;17.67;63.09;101172.97;5048434;28;20614;-92
2021/06/14 05:54:57;;;;;;;9.60;3.53;;;22.70;58.20;;;18.36;60.52;101164.03;5025837;28;20049;-91
2021/06/14 05:58:44;;;;;;;9.75;3.30;;;25.90;48.00;;;18.82;59.83;101164.84;5044862;28;20076;-92
2021/06/14 07:06:47;;;;;;;7.65;2.78;;;25.30;43.50;;;21.54;49.36;101171.84;5044142;28;20049;-92
2021/06/14 07:10:09;;;;;;;8.30;2.88;;;25.10;43.90;;;21.47;50.87;101160.88;5042501;28;20102;-92
2021/06/14 07:16:02;;;;;;;6.90;2.88;;;24.70;47.40;;;21.46;51.62;101162.00;5031709;28;20573;-93
2021/06/14 07:18:53;;;;;;;6.47;2.97;;;24.70;47.20;;;21.46;51.01;101165.59;5035396;28;20701;-92
2021/06/14 07:24:33;;;;;;;5.88;2.47;;;24.40;46.90;;;21.43;51.69;101162.44;5011843;28;20049;-92
2021/06/14 07:30:19;;;;;;;8.07;2.85;;;24.20;48.60;;;21.42;51.65;101155.22;5009697;28;20053;-92
2021/06/14 07:33:00;;;;;;;8.88;2.65;;;24.20;47.80;;;21.39;51.56;101148.22;5011663;28;20136;-90
2021/06/14 07:41:43;;;;;;;9.48;3.25;;;24.00;48.40;;;21.39;52.87;101139.91;5025576;28;20110;-90
2021/06/14 07:44:33;;;;;;;8.18;2.63;;;24.00;49.90;;;21.44;53.87;101137.31;5011650;28;20514;-91
2021/06/14 07:47:29;;;;;;;6.55;2.88;;;24.00;51.40;;;21.43;52.74;101138.34;5030145;28;20285;-89
2021/06/14 07:53:02;;;;;;;9.25;2.80;;;24.00;51.50;;;21.45;53.39;101129.81;5044414;22;20057;-88
2021/06/14 07:55:47;;;;;;;8.68;2.60;;;23.80;50.80;;;21.45;53.63;101122.34;5047772;28;20049;-89
2021/06/14 07:58:22;;;;;;;9.48;2.78;;;23.90;51.70;;;21.51;54.79;101130.78;5049668;28;20553;-88
2021/06/14 08:01:00;;;;;;;6.55;3.13;;;23.90;52.50;;;21.56;54.59;101122.59;5047115;28;20056;-89
2021/06/14 08:03:36;;;;;;;9.85;2.95;;;23.90;52.80;;;21.56;53.97;101114.28;5047081;28;20041;-88
2021/06/14 08:06:11;;;;;;;9.57;3.00;;;23.90;52.20;;;21.57;53.69;101108.50;5027962;28;20045;-89
2021/06/14 08:08:50;;;;;;;7.97;2.63;;;23.90;51.70;;;21.56;53.31;101111.53;5027249;28;20068;-89
2021/06/14 08:11:37;;;;;;;8.38;2.72;;;23.90;52.20;;;21.58;52.21;101106.56;5042090;28;20634;-87
2021/06/14 08:14:12;;;;;;;7.05;2.70;;;23.90;50.90;;;21.55;53.04;101093.19;5022717;28;20053;-88
2021/06/14 08:16:51;;;;;;;7.70;2.83;;;23.90;51.50;;;21.61;54.13;101095.84;5044555;28;20665;-87
2021/06/14 08:19:35;;;;;;;8.35;3.15;;;23.90;52.50;;;21.68;53.04;101095.69;5026599;28;20581;-86
2021/06/14 08:22:27;;;;;;;9.82;3.13;;;23.90;52.30;;;21.74;52.54;101097.53;5009559;28;20046;-87
2021/06/14 08:25:06;;;;;;;6.97;2.83;;;23.90;52.10;;;21.72;52.66;101094.13;5009122;28;20042;-88
2021/06/14 08:27:56;;;;;;;8.15;3.25;;;24.00;51.80;;;21.81;52.54;101102.91;5029111;28;20479;-88
2021/06/14 08:30:33;;;;;;;7.43;2.70;;;24.00;51.80;;;21.75;52.23;101101.97;5027037;28;20041;-87
2021/06/14 08:33:12;;;;;;;11.85;3.17;;;24.00;51.50;;;21.80;53.57;101102.06;5019656;28;20059;-88
2021/06/14 08:35:53;;;;;;;14.93;3.28;;;24.00;52.30;;;21.85;53.85;101104.09;5018265;28;20037;-89
2021/06/14 08:38:29;;;;;;;9.77;3.50;;;24.00;51.90;;;21.80;53.59;101099.31;5014486;28;20589;-89
2021/06/14 08:41:06;;;;;;;7.35;2.90;;;24.00;52.10;;;21.79;56.44;101094.84;5023616;28;20045;-89
2021/06/14 08:43:43;;;;;;;15.88;3.28;;;24.00;53.90;;;21.85;53.12;101098.56;5028718;28;20049;-88
2021/06/14 08:46:22;;;;;;;6.70;2.83;;;24.10;52.90;;;21.85;55.50;101087.47;5027834;28;20045;-89
2021/06/14 08:49:01;;;;;;;6.95;3.03;;;24.10;53.70;;;21.88;54.27;101086.16;5031177;28;20406;-88
2021/06/14 08:51:37;;;;;;;8.75;3.10;;;24.10;53.40;;;21.92;54.29;101093.72;5016426;28;20057;-84
2021/06/14 08:54:11;;;;;;;8.27;2.85;;;24.10;53.90;;;21.98;53.41;101080.81;5015123;28;20414;-86
2021/06/14 08:56:52;;;;;;;7.68;3.00;;;24.10;52.90;;;21.98;53.94;101080.81;5009061;28;20057;-87
2021/06/14 08:59:33;;;;;;;5.88;2.83;;;24.10;52.60;;;22.02;52.66;101076.44;4988893;28;20105;-86
2021/06/14 09:02:07;;;;;;;11.15;2.90;;;24.10;52.00;;;22.02;54.11;101077.28;5007432;28;20096;-87
2021/06/14 09:04:45;;;;;;;7.22;2.88;;;24.20;54.00;;;22.04;54.71;101079.81;5008619;28;20046;-87
2021/06/14 09:07:21;;;;;;;7.45;3.20;;;24.10;54.00;;;22.07;54.75;101071.00;5007385;28;20041;-87
2021/06/14 09:09:58;;;;;;;11.15;2.90;;;24.20;53.60;;;22.15;55.24;101076.16;4993354;28;20569;-87
2021/06/14 09:12:45;;;;;;;7.70;3.03;;;24.20;54.60;;;22.15;55.36;101067.81;5007923;28;20064;-87
2021/06/14 09:15:25;;;;;;;10.00;3.30;;;24.20;54.90;;;22.18;53.28;101067.34;4989522;28;20054;-86
2021/06/14 09:21:05;;;;;;;6.65;3.50;;;24.20;50.90;;;22.23;52.71;101055.50;5007109;28;20129;-88
2021/06/14 09:26:43;;;;;;;6.47;3.00;;;24.30;52.90;;;22.20;51.15;101045.75;5008133;28;20052;-88
2021/06/14 09:32:14;;;;;;;9.43;3.13;;;24.30;51.50;;;22.26;52.30;101030.09;5006110;28;20100;-88
2021/06/14 09:34:53;;;;;;;9.35;2.88;;;24.30;51.10;;;22.34;52.55;101031.59;4994775;28;20055;-87
2021/06/14 09:37:29;;;;;;;6.13;2.90;;;24.30;52.00;;;22.37;51.52;101020.00;4988717;28;20047;-88
2021/06/14 09:40:08;;;;;;;7.18;2.75;;;24.40;51.70;;;22.35;50.46;101019.41;5000096;28;20042;-88
2021/06/14 09:42:49;;;;;;;8.40;3.03;;;24.30;51.30;;;22.40;50.31;101020.34;4992817;28;20042;-88
2021/06/14 09:45:28;;;;;;;;;;;24.30;50.10;;;22.48;52.01;101007.97;4993125;28;20073;-88
2021/06/14 09:48:18;;;;;;;6.85;3.20;;;24.40;52.10;;;22.46;52.00;101010.16;5008834;28;20401;-88
2021/06/14 09:51:01;;;;;;;11.57;3.85;;;24.40;51.20;;;22.57;53.54;101006.47;5011461;28;20049;-87
2021/06/14 09:53:43;;;;;;;8.45;2.90;;;24.40;52.80;;;22.48;51.25;101013.53;5024296;28;20052;-88
2021/06/14 09:59:21;;;;;;;7.97;3.42;;;24.50;50.80;;;22.58;52.43;101016.50;5051315;28;20036;-87
2021/06/14 10:02:16;;;;;;;7.18;2.83;;;24.50;52.50;;;22.53;53.21;101032.22;5051301;28;20044;-86
2021/06/14 10:05:03;;;;;;;9.55;3.00;;;24.50;51.20;;;22.52;54.40;101017.47;5051859;28;20049;-87
2021/06/14 10:07:47;;;;;;;8.05;3.10;;;24.50;53.30;;;22.58;51.73;101018.41;5032067;28;20532;-88
2021/06/14 10:13:29;;;;;;;8.90;3.20;;;24.60;53.60;;;22.57;50.29;101022.28;5051167;28;20109;-88
2021/06/14 10:16:05;;;;;;;8.05;3.28;;;24.50;50.70;;;22.62;47.32;101020.44;5051481;28;20527;-86
2021/06/14 10:18:46;;;;;;;7.03;3.33;;;24.50;48.80;;;22.65;51.56;101019.06;5040786;28;20052;-92
2021/06/14 10:24:32;;;;;;;7.90;3.47;;;24.60;53.10;;;22.86;53.85;101019.41;5148630;27;20383;-82
2021/06/14 10:27:15;;;;;;;6.95;3.05;;;24.70;54.80;;;22.87;53.68;101019.16;5123816;28;20058;-83
2021/06/14 10:29:51;;;;;;;9.05;3.28;;;24.80;53.30;;;22.93;50.17;101029.22;5125652;27;20051;-81
2021/06/14 10:32:27;;;;;;;10.48;3.30;;;24.80;51.60;;;22.90;50.76;101026.13;5126624;27;20043;-88
2021/06/14 10:35:07;;;;;;;5.60;2.60;;;24.80;50.90;;;22.91;51.01;101022.25;5126344;27;20047;-87
2021/06/14 10:37:50;;;;;;;7.97;3.10;;;24.80;51.20;;;22.88;47.99;101018.03;5126428;28;20052;-89
2021/06/14 10:40:28;;;;;;;7.32;2.80;;;24.80;48.90;;;22.93;50.46;101012.56;5125436;27;20132;-88
2021/06/14 10:43:07;;;;;;;9.05;3.10;;;24.80;50.20;;;22.87;49.83;101010.81;5125119;28;20046;-89
2021/06/14 10:45:46;;;;;;;8.65;3.63;;;24.80;50.40;;;22.84;49.81;101014.94;5117000;28;20503;-92
2021/06/14 10:48:30;;;;;;;12.68;3.30;;;24.80;51.20;;;22.79;47.47;101019.56;5126514;28;20043;-89
2021/06/14 10:51:15;;;;;;;8.15;2.55;;;24.70;49.30;;;22.86;46.84;101003.59;5125661;28;20046;-89
2021/06/14 10:53:59;;;;;;;7.32;3.10;;;24.70;49.90;;;22.80;49.78;101004.59;5126204;28;20054;-89
2021/06/14 10:56:43;;;;;;;8.77;3.03;;;24.60;50.70;;;22.84;48.63;100997.44;5123126;27;20109;-90
2021/06/14 10:59:31;;;;;;;6.32;2.75;;;24.60;49.60;;;22.72;48.87;100992.00;5113856;28;20043;-86
2021/06/14 11:02:22;;;;;;;11.07;2.80;;;24.60;48.40;;;22.76;48.54;100997.88;5126040;28;20581;-88
2021/06/14 11:10:56;;;;;;;8.98;3.20;;;24.50;49.00;;;22.50;48.34;100991.91;5104244;28;20059;-88
2021/06/14 11:13:54;;;;;;;7.45;2.90;;;24.30;47.80;;;22.51;49.85;100985.28;5117834;27;20403;-87
2021/06/14 11:16:45;;;;;;;6.07;2.28;;;24.30;49.70;;;22.59;49.95;100995.13;5125939;27;20036;-87
2021/06/14 11:19:36;;;;;;;7.90;2.47;;;24.30;49.10;;;22.57;47.32;101000.91;5125938;28;20115;-88
2021/06/14 11:22:12;;;;;;;9.10;3.17;;;24.30;47.60;;;22.53;49.13;100994.19;5125942;27;20055;-88
2021/06/14 11:24:49;;;;;;;8.82;3.00;;;24.20;50.00;;;22.68;49.63;100995.56;5121237;27;20046;-88
2021/06/14 11:27:34;;;;;;;8.27;2.70;;;24.30;49.70;;;22.74;47.86;100987.03;5106461;28;20070;-88
2021/06/14 11:30:23;;;;;;;7.57;2.55;;;24.30;48.10;;;22.54;46.89;100982.03;5110006;28;20054;-87
2021/06/14 11:33:02;;;;;;;9.85;2.95;;;24.30;47.00;;;22.49;46.61;100986.66;5115166;27;20113;-86
2021/06/14 11:35:39;;;;;;;6.00;2.78;;;24.20;47.90;;;22.43;48.21;100985.72;5108570;28;20043;-87
2021/06/14 11:38:25;;;;;;;9.82;2.83;;;24.10;47.70;;;22.52;47.67;100978.63;5103751;28;20075;-88
2021/06/14 11:41:05;;;;;;;9.18;2.72;;;24.10;48.00;;;22.56;48.54;100973.44;5108767;28;20067;-86
2021/06/14 11:43:41;;;;;;;7.30;2.70;;;24.10;47.80;;;22.69;47.97;100970.31;5090824;28;20036;-87
2021/06/14 11:46:27;;;;;;;6.68;2.65;;;24.20;48.30;;;22.83;45.56;100966.09;5091152;28;20047;-87
2021/06/14 11:49:10;;;;;;;7.75;3.00;;;24.40;47.00;;;22.78;45.61;100957.69;5102226;28;20043;-87
2021/06/14 11:51:49;;;;;;;8.60;3.50;;;24.40;46.50;;;22.70;48.11;100963.66;5111014;28;20068;-87
2021/06/14 11:54:27;;;;;;;7.80;2.88;;;24.40;47.90;;;22.68;47.61;100965.03;5098392;28;20043;-87
2021/06/14 11:57:07;;;;;;;7.43;3.20;;;24.40;47.70;;;22.76;50.59;100964.59;5090966;28;20059;-88
2021/06/14 11:59:47;;;;;;;9.50;2.90;;;24.50;50.40;;;22.85;48.02;100957.50;5089984;28;20048;-87
2021/06/14 12:02:26;;;;;;;9.43;3.42;;;24.50;48.50;;;22.74;47.58;100952.91;5089055;28;20052;-86
2021/06/14 12:05:08;;;;;;;6.80;2.75;;;24.50;47.60;;;22.84;48.39;100955.81;5090699;28;20051;-86
2021/06/14 12:07:48;;;;;;;9.60;3.25;;;24.50;48.80;;;22.85;47.17;100951.97;5090555;28;20070;-87
2021/06/14 12:10:26;;;;;;;10.70;3.28;;;24.50;48.00;;;22.83;47.49;100945.81;5089924;28;20097;-87
2021/06/14 12:13:19;;;;;;;10.27;2.85;;;24.50;48.10;;;22.75;47.69;100944.34;5090511;28;20101;-89
2021/06/14 12:16:09;;;;;;;6.25;3.00;;;24.50;48.30;;;22.69;48.59;100944.50;5090477;28;20044;-89
2021/06/14 12:19:03;;;;;;;9.32;3.03;;;24.40;49.00;;;22.58;47.62;100935.16;5096733;28;20040;-89
2021/06/14 12:21:39;;;;;;;8.15;2.92;;;24.40;47.50;;;22.63;48.21;100933.31;5089521;28;20439;-88
2021/06/14 12:24:24;;;;;;;13.38;2.90;;;24.40;48.60;;;22.71;49.03;100928.44;5091511;28;20048;-89
2021/06/14 12:27:11;;;;;;;8.80;2.90;;;24.50;49.80;;;22.70;46.70;100922.06;5090259;28;20040;-88
2021/06/14 12:29:45;;;;;;;8.45;2.75;;;24.50;48.40;;;22.68;47.74;100927.03;5089311;28;20055;-88
2021/06/14 12:32:26;;;;;;;11.32;3.53;;;24.40;48.30;;;22.81;47.53;100923.88;5090611;28;20097;-87
2021/06/14 12:35:11;;;;;;;6.55;2.65;;;24.50;48.50;;;22.72;47.53;100925.41;5094311;28;20468;-89
2021/06/14 12:37:50;;;;;;;11.00;3.40;;;24.50;48.30;;;22.88;47.74;100915.34;5109396;28;20116;-88
2021/06/14 12:40:38;;;;;;;7.30;2.80;;;24.50;48.80;;;22.98;48.76;100904.41;5098005;28;20067;-85
2021/06/14 12:43:15;;;;;;;8.43;3.03;;;24.50;50.00;;;23.04;47.37;100899.78;5090003;28;20048;-85
2021/06/14 12:45:57;;;;;;;10.57;3.67;;;24.70;48.40;;;22.86;47.40;100903.66;5089253;28;20038;-85
2021/06/14 12:48:36;;;;;;;12.32;3.42;;;24.60;48.20;;;23.04;49.64;100899.78;5099379;28;20132;-86
2021/06/14 12:51:34;;;;;;;9.05;3.42;;;24.70;50.70;;;23.06;45.97;100891.19;5109503;28;20047;-85
2021/06/14 12:54:17;;;;;;;11.45;3.42;;;24.70;47.40;;;23.00;46.68;100899.41;5109970;28;20039;-85
2021/06/14 12:57:02;;;;;;;6.15;3.08;;;24.80;47.60;;;22.93;45.80;100893.22;5109892;28;20253;-85
2021/06/14 12:59:41;;;;;;;7.72;2.78;;;24.80;46.50;;;23.03;45.69;100890.59;5108640;28;20481;-90
2021/06/14 13:02:22;;;;;;;5.75;2.42;;;24.80;46.20;;;23.18;44.04;100884.38;5104457;28;20104;-83
2021/06/14 13:05:00;;;;;;;6.88;2.35;;;25.00;44.50;;;23.29;44.45;100882.56;5093395;28;20040;-84
2021/06/14 13:07:38;;;;;;;6.25;2.55;;;25.00;45.10;;;23.22;46.35;100884.72;5097560;28;20518;-85
2021/06/14 13:10:23;;;;;;;8.95;2.75;;;25.00;46.20;;;23.19;44.88;100885.25;5088761;28;20044;-88
2021/06/14 13:12:59;;;;;;;8.10;2.80;;;25.00;45.60;;;23.17;46.05;100884.66;5089757;28;20491;-86
2021/06/14 13:15:38;;;;;;;6.88;2.28;;;25.00;46.50;;;23.16;46.14;100882.97;5089474;28;20407;-85
2021/06/14 13:18:19;;;;;;;5.00;2.50;;;25.00;46.70;;;23.16;45.04;100874.66;5089276;28;20439;-85
2021/06/14 13:21:06;;;;;;;8.63;2.78;;;25.10;45.70;;;23.15;46.53;100875.72;5102638;28;20047;-85
2021/06/14 13:23:58;;;;;;;7.60;2.80;;;25.00;47.10;;;23.16;44.59;100882.97;5104762;27;20064;-86
2021/06/14 13:26:45;;;;;;;8.73;2.65;;;25.00;44.60;;;23.05;41.66;100875.63;5095341;28;20051;-85
2021/06/14 13:29:26;;;;;;;9.27;2.63;;;25.00;41.60;;;23.07;41.54;100876.22;5088007;28;20044;-85
2021/06/14 13:32:21;;;;;;;6.72;2.83;;;25.00;42.30;;;23.16;43.02;100864.38;5104505;28;20046;-85
2021/06/14 13:35:08;;;;;;;7.60;2.83;;;25.00;43.50;;;23.21;44.68;100867.22;5109539;28;20034;-87
2021/06/14 13:37:54;;;;;;;6.82;2.90;;;25.00;45.10;;;23.12;42.43;100871.56;5108669;28;20138;-86
2021/06/14 13:40:46;;;;;;;6.85;2.63;;;25.00;43.00;;;23.14;43.34;100858.25;5106947;28;20043;-86
2021/06/14 13:46:21;;;;;;;9.32;2.85;;;25.00;43.10;;;23.09;45.65;100855.41;5106977;28;20078;-85